Time;durP1;ratioP1;P1;durP2;ratioP2;P2;SDS_P1;SDS_P2;PMS_P1;PMS_P2;Temp;Humidity;BMP_temperature;BMP_pressure;BME280_temperature;BME280_humidity;BME280_pressure;Samples;Min_cycle;Max_cycle;Signal;HPM_P1;HPM_P2
2022/01/29 00:01:35;;;;;;;21.20;12.65;;;7.50;99.90;;;;;;5033902;28;20048;-70
2022/01/29 00:04:00;;;;;;;23.52;12.55;;;7.50;99.90;;;;;;5033321;28;20044;-70
2022/01/29 00:06:26;;;;;;;24.75;13.20;;;7.50;99.90;;;;;;5035040;28;20666;-69
2022/01/29 00:08:54;;;;;;;19.58;11.68;;;7.50;99.90;;;;;;5065921;28;20919;-70
2022/01/29 00:11:26;;;;;;;22.95;12.65;;;7.50;99.90;;;;;;5028468;28;20151;-70
2022/01/29 00:13:52;;;;;;;26.80;11.95;;;7.50;99.90;;;;;;5065768;28;20489;-70
2022/01/29 00:16:17;;;;;;;15.73;11.60;;;7.50;99.90;;;;;;5031524;28;20136;-69
2022/01/29 00:18:43;;;;;;;22.05;12.85;;;7.50;99.90;;;;;;5034937;28;20041;-70
2022/01/29 00:21:08;;;;;;;22.52;12.43;;;7.40;99.90;;;;;;5036409;28;20135;-70
2022/01/29 00:23:34;;;;;;;25.85;12.85;;;7.40;99.90;;;;;;5032766;28;21018;-70
2022/01/29 00:26:00;;;;;;;23.88;14.07;;;7.40;99.90;;;;;;5033029;28;20492;-69
2022/01/29 00:28:27;;;;;;;19.13;11.77;;;7.40;99.90;;;;;;5033907;28;20060;-70
2022/01/29 00:30:52;;;;;;;22.23;12.68;;;7.50;99.90;;;;;;5032530;28;20045;-70
2022/01/29 00:33:18;;;;;;;24.60;11.68;;;7.50;99.90;;;;;;5032840;28;20052;-70
2022/01/29 00:35:44;;;;;;;25.23;13.10;;;7.50;99.90;;;;;;5035200;28;20044;-70
2022/01/29 00:38:10;;;;;;;22.48;12.10;;;7.50;99.90;;;;;;5032862;28;20092;-70
2022/01/29 00:40:39;;;;;;;20.67;12.38;;;7.50;99.90;;;;;;5033727;28;20976;-70
2022/01/29 00:43:05;;;;;;;16.73;11.07;;;7.50;99.90;;;;;;5032831;28;20041;-70
2022/01/29 00:45:32;;;;;;;21.10;11.63;;;7.50;99.90;;;;;;5035423;28;20056;-70
2022/01/29 00:47:58;;;;;;;16.00;11.27;;;7.50;99.90;;;;;;5035497;28;20674;-70
2022/01/29 00:50:23;;;;;;;24.20;13.45;;;7.50;99.90;;;;;;5030740;28;20045;-70
2022/01/29 00:52:49;;;;;;;22.10;13.20;;;7.50;99.90;;;;;;5036245;28;20131;-70
2022/01/29 00:55:14;;;;;;;18.40;12.52;;;7.50;99.90;;;;;;5036949;28;20094;-70
2022/01/29 00:57:40;;;;;;;18.20;12.63;;;7.50;99.90;;;;;;5038097;28;20412;-70
2022/01/29 01:00:08;;;;;;;20.95;12.10;;;7.40;99.90;;;;;;5035165;28;20056;-71
2022/01/29 01:02:34;;;;;;;20.60;12.93;;;7.50;99.90;;;;;;5035953;28;20053;-71
2022/01/29 01:04:59;;;;;;;20.50;12.57;;;7.40;99.90;;;;;;5037174;28;20041;-72
2022/01/29 01:07:25;;;;;;;20.95;12.52;;;7.40;99.90;;;;;;5036717;28;20090;-72
2022/01/29 01:09:51;;;;;;;17.67;11.52;;;7.50;99.90;;;;;;5035890;28;20155;-71
2022/01/29 01:12:16;;;;;;;18.65;12.68;;;7.40;99.90;;;;;;5035787;28;20080;-71
2022/01/29 01:14:42;;;;;;;15.65;12.32;;;7.40;99.90;;;;;;5037963;28;20044;-71
2022/01/29 01:17:08;;;;;;;16.73;12.43;;;7.40;99.90;;;;;;5036131;28;20055;-71
2022/01/29 01:19:34;;;;;;;20.27;12.02;;;7.40;99.90;;;;;;5035597;28;20055;-71
2022/01/29 01:22:00;;;;;;;17.55;11.52;;;7.40;99.90;;;;;;5035350;28;20095;-71
2022/01/29 01:24:26;;;;;;;14.27;11.23;;;7.40;99.90;;;;;;5035859;28;20049;-71
2022/01/29 01:26:52;;;;;;;21.80;13.55;;;7.40;99.90;;;;;;5037326;28;20087;-70
2022/01/29 01:29:18;;;;;;;17.63;12.32;;;7.50;99.90;;;;;;5035351;28;20040;-71
2022/01/29 01:31:45;;;;;;;20.48;11.35;;;7.50;99.90;;;;;;5034278;28;20812;-72
2022/01/29 01:34:16;;;;;;;17.02;12.27;;;7.50;99.90;;;;;;5032392;28;20068;-71
2022/01/29 01:37:04;;;;;;;15.95;11.43;;;7.50;99.90;;;;;;5034214;28;21032;-71
2022/01/29 01:39:34;;;;;;;25.00;12.95;;;7.60;99.90;;;;;;5034157;28;20056;-71
2022/01/29 01:42:04;;;;;;;22.02;12.38;;;7.60;99.90;;;;;;5034286;28;20048;-71
2022/01/29 01:44:43;;;;;;;19.08;12.52;;;7.60;99.90;;;;;;5031121;28;20162;-71
2022/01/29 01:47:09;;;;;;;20.25;13.38;;;7.70;99.90;;;;;;5034036;28;20057;-71
2022/01/29 01:49:36;;;;;;;18.00;12.95;;;7.70;99.90;;;;;;5032517;28;20049;-71
2022/01/29 01:52:02;;;;;;;18.33;11.60;;;7.80;99.90;;;;;;5034572;28;20528;-71
2022/01/29 01:54:28;;;;;;;20.05;12.23;;;7.80;99.90;;;;;;5032085;28;20120;-71
2022/01/29 01:56:54;;;;;;;23.98;12.95;;;7.80;99.90;;;;;;5033705;28;20549;-71
2022/01/29 01:59:19;;;;;;;25.65;14.45;;;7.80;99.90;;;;;;5033597;28;20045;-71
2022/01/29 02:01:45;;;;;;;19.50;11.75;;;7.90;99.90;;;;;;5033010;28;20079;-72
2022/01/29 02:04:11;;;;;;;23.50;14.30;;;7.90;99.90;;;;;;5029148;28;20507;-71
2022/01/29 02:06:37;;;;;;;25.63;14.02;;;7.90;99.90;;;;;;5035162;28;20056;-71
2022/01/29 02:09:03;;;;;;;23.77;14.82;;;7.90;99.90;;;;;;5029418;28;20040;-71
2022/01/29 02:11:29;;;;;;;25.45;14.02;;;7.90;99.90;;;;;;5030582;28;20068;-71
2022/01/29 02:14:00;;;;;;;29.27;14.23;;;8.00;99.90;;;;;;5065734;28;20162;-71
2022/01/29 02:16:31;;;;;;;22.45;12.77;;;8.00;99.90;;;;;;5035523;28;20423;-71
2022/01/29 02:18:57;;;;;;;25.15;13.93;;;8.00;99.90;;;;;;5032125;28;20056;-71
2022/01/29 02:21:28;;;;;;;22.33;13.57;;;8.00;99.90;;;;;;5034257;28;20409;-71
2022/01/29 02:23:54;;;;;;;29.23;14.63;;;8.00;99.90;;;;;;5034237;28;20052;-71
2022/01/29 02:26:20;;;;;;;24.65;13.55;;;8.00;99.90;;;;;;5031343;28;20037;-72
2022/01/29 02:28:45;;;;;;;31.38;15.10;;;8.00;99.90;;;;;;5032862;28;20083;-71
2022/01/29 02:31:11;;;;;;;20.90;13.60;;;8.00;99.90;;;;;;5034846;28;20037;-71
2022/01/29 02:33:39;;;;;;;29.77;14.55;;;8.10;99.90;;;;;;5033916;28;20099;-71
2022/01/29 02:36:06;;;;;;;30.63;14.45;;;8.10;99.90;;;;;;5034165;28;20052;-71
2022/01/29 02:38:31;;;;;;;21.63;14.30;;;8.00;99.90;;;;;;5031257;28;20049;-71
2022/01/29 02:41:01;;;;;;;25.35;14.57;;;8.10;99.90;;;;;;5032816;28;20921;-71
2022/01/29 02:43:37;;;;;;;22.90;14.45;;;8.10;99.90;;;;;;5033480;28;20397;-71
2022/01/29 02:46:29;;;;;;;21.52;13.30;;;8.10;99.90;;;;;;5034667;28;20053;-71
2022/01/29 02:48:52;;;;;;;24.27;13.63;;;8.10;99.90;;;;;;5035641;28;20052;-71
2022/01/29 02:51:19;;;;;;;21.00;13.55;;;8.10;99.90;;;;;;5033740;28;20150;-71
2022/01/29 02:53:45;;;;;;;22.38;13.63;;;8.10;99.90;;;;;;5034153;28;20130;-71
2022/01/29 02:56:12;;;;;;;29.73;14.73;;;8.10;99.90;;;;;;5036973;28;20420;-71
2022/01/29 02:58:38;;;;;;;18.50;12.98;;;8.20;99.90;;;;;;5032701;28;20037;-71
2022/01/29 03:01:06;;;;;;;27.55;14.73;;;8.20;99.90;;;;;;5038231;28;20102;-72
2022/01/29 03:03:32;;;;;;;27.00;14.50;;;8.20;99.90;;;;;;5036014;28;20036;-71
2022/01/29 03:05:58;;;;;;;20.50;13.57;;;8.20;99.90;;;;;;5036663;28;20400;-72
2022/01/29 03:08:23;;;;;;;20.15;13.13;;;8.20;99.90;;;;;;5038745;28;20036;-71
2022/01/29 03:10:49;;;;;;;26.80;14.32;;;8.20;99.90;;;;;;5036378;28;20124;-71
2022/01/29 03:13:17;;;;;;;22.17;14.25;;;8.30;99.90;;;;;;5036248;28;20178;-71
2022/01/29 03:15:43;;;;;;;32.42;15.82;;;8.30;99.90;;;;;;5036852;28;20053;-71
2022/01/29 03:18:08;;;;;;;26.98;13.15;;;8.30;99.90;;;;;;5033705;28;20225;-71
2022/01/29 03:20:34;;;;;;;23.10;13.57;;;8.30;99.90;;;;;;5035585;28;20118;-71
2022/01/29 03:23:00;;;;;;;23.30;14.00;;;8.30;99.90;;;;;;5034488;28;20045;-71
2022/01/29 03:25:26;;;;;;;20.13;12.45;;;8.30;99.90;;;;;;5037376;28;20374;-71
2022/01/29 03:27:52;;;;;;;20.20;14.23;;;8.30;99.90;;;;;;5038629;28;20041;-71
2022/01/29 03:30:18;;;;;;;19.27;14.05;;;8.30;99.90;;;;;;5038295;28;20059;-71
2022/01/29 03:32:44;;;;;;;24.55;13.35;;;8.40;99.90;;;;;;5034050;28;20138;-71
2022/01/29 03:35:11;;;;;;;24.83;13.15;;;8.40;99.90;;;;;;5035323;28;20171;-71
2022/01/29 03:37:37;;;;;;;19.45;12.98;;;8.40;99.90;;;;;;5038828;28;20190;-71
2022/01/29 03:40:05;;;;;;;22.25;13.48;;;8.40;99.90;;;;;;5034585;28;20049;-71
2022/01/29 03:42:35;;;;;;;18.77;11.07;;;8.40;99.90;;;;;;5035571;28;20040;-71
2022/01/29 03:45:02;;;;;;;19.83;12.63;;;8.40;99.90;;;;;;5036636;28;20053;-71
2022/01/29 03:47:27;;;;;;;26.33;13.73;;;8.50;99.90;;;;;;5069883;28;20053;-71
2022/01/29 03:49:53;;;;;;;22.45;11.45;;;8.50;99.90;;;;;;5038053;28;20088;-71
2022/01/29 03:52:18;;;;;;;20.08;12.30;;;8.50;99.90;;;;;;5038948;28;20041;-71
2022/01/29 03:54:44;;;;;;;23.05;12.52;;;8.50;99.90;;;;;;5039512;28;20083;-71
2022/01/29 03:57:10;;;;;;;21.70;12.13;;;8.50;99.90;;;;;;5038684;28;20064;-71
2022/01/29 03:59:35;;;;;;;18.55;11.38;;;8.50;99.90;;;;;;5037317;28;20178;-70
2022/01/29 04:02:01;;;;;;;21.67;11.73;;;8.60;99.90;;;;;;5039425;28;20037;-71
2022/01/29 04:04:27;;;;;;;31.50;11.43;;;8.60;99.90;;;;;;5039902;28;20045;-71
2022/01/29 04:06:52;;;;;;;23.88;11.73;;;8.60;99.90;;;;;;5039807;28;20045;-71
2022/01/29 04:09:19;;;;;;;15.63;11.10;;;8.60;99.90;;;;;;5039143;28;20049;-71
2022/01/29 04:11:45;;;;;;;17.73;10.25;;;8.60;99.90;;;;;;5038435;28;20049;-71
2022/01/29 04:14:19;;;;;;;14.73;11.38;;;8.60;99.90;;;;;;5037655;28;20092;-71
2022/01/29 04:16:45;;;;;;;17.05;9.90;;;8.60;99.90;;;;;;5038830;28;20130;-71
2022/01/29 04:19:11;;;;;;;17.80;11.00;;;8.60;99.90;;;;;;5037359;28;20049;-71
2022/01/29 04:21:38;;;;;;;18.13;11.60;;;8.60;99.90;;;;;;5035882;28;20079;-71
2022/01/29 04:24:04;;;;;;;16.20;11.35;;;8.60;99.90;;;;;;5037172;28;20211;-71
2022/01/29 04:26:34;;;;;;;16.75;10.70;;;8.70;99.90;;;;;;5037865;28;20814;-71
2022/01/29 04:29:05;;;;;;;21.35;11.82;;;8.70;99.90;;;;;;5036647;28;20060;-71
2022/01/29 04:31:39;;;;;;;24.25;11.88;;;8.70;99.90;;;;;;5039007;28;20060;-71
2022/01/29 04:34:05;;;;;;;16.27;10.52;;;8.70;99.90;;;;;;5037452;28;20099;-71
2022/01/29 04:36:30;;;;;;;16.40;10.90;;;8.70;99.90;;;;;;5038361;28;20052;-71
2022/01/29 04:38:56;;;;;;;24.10;13.38;;;8.70;99.90;;;;;;5038316;28;20057;-71
2022/01/29 04:41:22;;;;;;;16.67;11.00;;;8.70;99.90;;;;;;5038225;28;20048;-71
2022/01/29 04:43:48;;;;;;;17.27;11.85;;;8.70;99.90;;;;;;5037313;28;20068;-71
2022/01/29 04:46:14;;;;;;;24.75;12.48;;;8.80;99.90;;;;;;5039677;28;20059;-71
2022/01/29 04:48:39;;;;;;;18.35;11.75;;;8.80;99.90;;;;;;5037807;28;20049;-71
2022/01/29 04:51:05;;;;;;;18.17;10.32;;;8.80;99.90;;;;;;5037876;28;20272;-71
2022/01/29 04:53:30;;;;;;;21.23;10.40;;;8.80;99.90;;;;;;5039252;28;20071;-71
2022/01/29 04:55:56;;;;;;;19.75;9.65;;;8.80;99.90;;;;;;5039024;28;20041;-70
2022/01/29 04:58:22;;;;;;;12.38;9.55;;;8.80;99.90;;;;;;5037194;28;20667;-71
2022/01/29 05:00:47;;;;;;;14.85;9.88;;;8.80;99.90;;;;;;5036736;28;20106;-71
2022/01/29 05:03:14;;;;;;;15.07;10.27;;;8.80;99.90;;;;;;5037153;28;20080;-71
2022/01/29 05:05:41;;;;;;;16.08;10.05;;;8.90;99.90;;;;;;5037013;28;20059;-72
2022/01/29 05:08:08;;;;;;;18.70;10.32;;;8.80;99.90;;;;;;5070353;28;20049;-71
2022/01/29 05:10:34;;;;;;;18.48;10.00;;;8.80;99.90;;;;;;5037102;28;20067;-72
2022/01/29 05:13:07;;;;;;;16.77;10.88;;;8.90;99.90;;;;;;5038250;28;20052;-72
2022/01/29 05:28:57;;;;;;;14.45;9.98;;;8.90;99.90;;;;;;5036714;28;20114;-71
2022/01/29 05:31:23;;;;;;;16.80;9.85;;;9.00;99.90;;;;;;5036481;28;20060;-71
2022/01/29 05:33:49;;;;;;;14.40;9.18;;;8.90;99.90;;;;;;5036278;28;20124;-72
2022/01/29 05:36:14;;;;;;;16.55;10.57;;;9.00;99.90;;;;;;5038506;28;20055;-71
2022/01/29 05:38:40;;;;;;;18.58;9.68;;;9.00;99.90;;;;;;5038073;28;20579;-72
2022/01/29 05:41:06;;;;;;;16.67;10.45;;;9.00;99.90;;;;;;5037374;28;20667;-72
2022/01/29 05:43:31;;;;;;;15.63;8.95;;;9.00;99.90;;;;;;5036392;28;20049;-71
2022/01/29 05:45:57;;;;;;;11.75;8.25;;;9.00;99.90;;;;;;5036391;28;20057;-72
2022/01/29 05:48:23;;;;;;;12.48;9.10;;;9.10;99.90;;;;;;5035671;28;20389;-72
2022/01/29 05:50:49;;;;;;;16.38;8.48;;;9.10;99.90;;;;;;5038521;28;20103;-71
2022/01/29 05:53:15;;;;;;;12.88;9.80;;;9.10;99.90;;;;;;5038003;28;20055;-71
2022/01/29 05:55:40;;;;;;;15.52;9.20;;;9.10;99.90;;;;;;5070239;28;20049;-71
2022/01/29 05:58:06;;;;;;;12.35;9.02;;;9.10;99.90;;;;;;5032383;28;20059;-71
2022/01/29 06:00:31;;;;;;;15.82;10.48;;;9.10;99.90;;;;;;5026063;28;20048;-71
2022/01/29 06:02:58;;;;;;;16.92;9.38;;;9.10;99.90;;;;;;5033461;28;20060;-71
2022/01/29 06:05:24;;;;;;;12.80;9.35;;;9.20;99.90;;;;;;5029023;28;20797;-71
2022/01/29 06:07:50;;;;;;;12.43;9.32;;;9.20;99.90;;;;;;5065638;28;20052;-72
2022/01/29 06:10:16;;;;;;;14.07;9.88;;;9.10;99.90;;;;;;5032060;28;20143;-72
2022/01/29 06:12:41;;;;;;;18.23;9.05;;;9.20;99.90;;;;;;5032837;28;20049;-72
2022/01/29 06:15:07;;;;;;;18.80;10.02;;;9.20;99.90;;;;;;5032247;28;20041;-72
2022/01/29 06:17:33;;;;;;;14.30;10.38;;;9.20;99.90;;;;;;5035709;28;20497;-71
2022/01/29 06:19:58;;;;;;;16.17;9.45;;;9.20;99.90;;;;;;5035697;28;20051;-71
2022/01/29 06:22:25;;;;;;;28.17;10.38;;;9.20;99.90;;;;;;5032872;28;20816;-71
2022/01/29 06:24:50;;;;;;;18.17;9.65;;;9.20;99.90;;;;;;5037317;28;20055;-72
2022/01/29 06:27:16;;;;;;;15.57;9.35;;;9.20;99.90;;;;;;5039194;28;20056;-72
2022/01/29 06:29:42;;;;;;;13.70;8.95;;;9.20;99.90;;;;;;5038090;28;20041;-71
2022/01/29 06:32:07;;;;;;;17.75;8.27;;;9.20;99.90;;;;;;5068294;28;20041;-71
2022/01/29 06:34:33;;;;;;;13.65;8.73;;;9.20;99.90;;;;;;5070927;28;20047;-71
2022/01/29 06:36:58;;;;;;;14.43;9.48;;;9.20;99.90;;;;;;5034938;28;20529;-71
2022/01/29 06:39:24;;;;;;;19.48;9.45;;;9.20;99.90;;;;;;5031869;28;20042;-71
2022/01/29 06:41:49;;;;;;;13.15;8.48;;;9.20;99.90;;;;;;5065871;28;20045;-71
2022/01/29 06:44:15;;;;;;;12.85;9.18;;;9.30;99.90;;;;;;5067421;28;20057;-72
2022/01/29 06:46:40;;;;;;;14.80;8.10;;;9.20;99.90;;;;;;5036862;28;20084;-71
2022/01/29 06:49:06;;;;;;;13.80;9.00;;;9.30;99.90;;;;;;5067990;28;20379;-72
2022/01/29 06:51:32;;;;;;;16.70;8.88;;;9.30;99.90;;;;;;5033687;28;20049;-72
2022/01/29 06:53:58;;;;;;;15.05;8.40;;;9.30;99.90;;;;;;5035799;28;20068;-71
2022/01/29 06:56:24;;;;;;;11.63;7.68;;;9.30;99.90;;;;;;5032350;28;20814;-71
2022/01/29 06:58:49;;;;;;;12.65;8.93;;;9.30;99.90;;;;;;5033362;28;20663;-71
2022/01/29 07:01:15;;;;;;;11.40;7.25;;;9.30;99.90;;;;;;5034250;28;20215;-71
2022/01/29 07:03:40;;;;;;;13.65;8.35;;;9.30;99.90;;;;;;5035650;28;20045;-71
2022/01/29 07:06:06;;;;;;;13.20;8.40;;;9.40;99.90;;;;;;5032991;28;20847;-71
2022/01/29 07:08:37;;;;;;;14.68;8.43;;;9.40;99.90;;;;;;5066831;28;20850;-71
2022/01/29 07:11:02;;;;;;;13.20;7.78;;;9.40;99.90;;;;;;5066732;28;20919;-71
2022/01/29 07:13:28;;;;;;;12.50;8.00;;;9.30;99.90;;;;;;5032051;28;20041;-71
2022/01/29 07:15:53;;;;;;;14.65;7.25;;;9.40;99.90;;;;;;5035154;28;20488;-71
2022/01/29 07:18:19;;;;;;;14.55;8.32;;;9.40;99.90;;;;;;5066915;28;20053;-71
2022/01/29 07:20:46;;;;;;;9.88;7.30;;;9.40;99.90;;;;;;5032144;28;20050;-71
2022/01/29 07:23:12;;;;;;;12.05;7.68;;;9.40;99.90;;;;;;5033982;28;20522;-71
2022/01/29 07:25:37;;;;;;;10.02;7.50;;;9.40;99.90;;;;;;5031726;28;20049;-71
2022/01/29 07:28:03;;;;;;;10.02;7.53;;;9.40;99.90;;;;;;5035483;28;20033;-71
2022/01/29 07:30:29;;;;;;;12.95;8.65;;;9.40;99.90;;;;;;5032601;28;20438;-72
2022/01/29 07:32:54;;;;;;;16.88;7.05;;;9.40;99.90;;;;;;5068373;28;20064;-72
2022/01/29 07:35:20;;;;;;;20.70;8.68;;;9.40;99.90;;;;;;5036470;28;20056;-71
2022/01/29 07:37:45;;;;;;;15.93;8.02;;;9.60;99.90;;;;;;5037916;28;20061;-72
2022/01/29 07:40:11;;;;;;;11.20;7.78;;;9.40;99.90;;;;;;5038594;28;20130;-72
2022/01/29 07:42:37;;;;;;;13.18;7.40;;;9.40;99.90;;;;;;5039559;28;20862;-72
2022/01/29 07:45:03;;;;;;;9.43;6.72;;;9.30;99.90;;;;;;5038874;28;20060;-72
2022/01/29 07:47:29;;;;;;;11.60;7.53;;;9.30;99.90;;;;;;5039628;28;20041;-72
2022/01/29 07:49:55;;;;;;;12.48;7.35;;;9.30;99.90;;;;;;5038458;28;20052;-73
2022/01/29 07:52:20;;;;;;;12.23;8.05;;;9.30;99.90;;;;;;5070059;28;20133;-73
2022/01/29 07:54:46;;;;;;;13.00;8.05;;;9.30;99.90;;;;;;5068889;28;20049;-73
2022/01/29 07:57:11;;;;;;;13.65;7.85;;;9.20;99.90;;;;;;5035479;28;20083;-72
2022/01/29 07:59:37;;;;;;;13.68;8.60;;;9.30;99.90;;;;;;5062641;28;20846;-72
2022/01/29 08:02:03;;;;;;;11.63;7.35;;;9.20;99.90;;;;;;5030813;28;20061;-73
2022/01/29 08:04:28;;;;;;;10.13;7.22;;;9.20;99.90;;;;;;5070218;28;20122;-73
2022/01/29 08:06:54;;;;;;;12.65;7.50;;;9.20;99.90;;;;;;5070297;28;20049;-73
2022/01/29 08:09:19;;;;;;;13.63;7.65;;;9.20;99.90;;;;;;5065673;28;20048;-73
2022/01/29 08:11:45;;;;;;;14.07;8.40;;;9.20;99.90;;;;;;5066644;28;20048;-73
2022/01/29 08:14:11;;;;;;;10.20;7.38;;;9.20;99.90;;;;;;5036212;28;20652;-73
2022/01/29 08:16:36;;;;;;;14.13;7.45;;;9.20;99.90;;;;;;5038348;28;20041;-73
2022/01/29 08:19:02;;;;;;;13.30;8.00;;;9.20;99.90;;;;;;5038464;28;20197;-72
2022/01/29 08:21:27;;;;;;;14.30;8.63;;;9.20;99.90;;;;;;5030626;28;20040;-73
2022/01/29 08:23:53;;;;;;;12.10;7.53;;;9.20;99.90;;;;;;5037864;28;20859;-72
2022/01/29 08:26:18;;;;;;;12.65;7.55;;;9.20;99.90;;;;;;5031108;28;20051;-72
2022/01/29 08:28:44;;;;;;;12.88;8.80;;;9.30;99.90;;;;;;5035575;28;20053;-72
2022/01/29 08:31:10;;;;;;;13.95;8.10;;;9.30;99.90;;;;;;5037570;28;20496;-72
2022/01/29 08:33:36;;;;;;;14.70;7.88;;;9.30;99.90;;;;;;5037756;28;20694;-73
2022/01/29 08:36:03;;;;;;;10.90;7.22;;;9.40;99.90;;;;;;5028373;28;20559;-72
2022/01/29 08:38:29;;;;;;;11.00;6.85;;;9.40;99.90;;;;;;5037448;28;21485;-72
2022/01/29 08:40:55;;;;;;;11.15;6.90;;;9.40;99.90;;;;;;5023761;28;20041;-72
2022/01/29 08:43:22;;;;;;;11.65;5.75;;;9.40;99.90;;;;;;5028395;28;20045;-72
2022/01/29 08:45:49;;;;;;;8.80;6.90;;;9.50;99.90;;;;;;5033605;28;20092;-71
2022/01/29 08:48:16;;;;;;;11.27;6.47;;;9.80;99.90;;;;;;5033342;28;20514;-71
2022/01/29 08:50:41;;;;;;;11.75;6.82;;;9.50;99.90;;;;;;5068701;28;20067;-71
2022/01/29 08:53:07;;;;;;;10.52;6.22;;;9.50;99.90;;;;;;5069013;28;20049;-72
2022/01/29 08:55:36;;;;;;;11.43;6.55;;;9.50;99.90;;;;;;5036714;28;20837;-72
2022/01/29 08:58:04;;;;;;;9.77;6.50;;;9.50;99.90;;;;;;5067452;28;20433;-72
2022/01/29 09:00:29;;;;;;;8.43;5.97;;;9.60;99.90;;;;;;5019705;28;20130;-76
2022/01/29 09:02:55;;;;;;;14.48;7.03;;;9.60;99.90;;;;;;5019427;28;20415;-72
2022/01/29 09:05:22;;;;;;;13.75;6.50;;;9.60;99.90;;;;;;5017000;28;20572;-71
2022/01/29 09:07:47;;;;;;;9.23;5.60;;;9.70;99.90;;;;;;5018680;28;20049;-72
2022/01/29 09:10:13;;;;;;;8.23;5.18;;;9.70;99.90;;;;;;5019306;28;20053;-73
2022/01/29 09:12:39;;;;;;;11.90;4.35;;;9.70;99.90;;;;;;5018408;28;20083;-72
2022/01/29 09:15:05;;;;;;;12.75;5.53;;;9.80;99.90;;;;;;5018046;28;20045;-72
2022/01/29 09:17:31;;;;;;;9.05;4.90;;;9.80;99.90;;;;;;5016819;28;20140;-71
2022/01/29 09:19:57;;;;;;;8.93;3.95;;;9.80;99.90;;;;;;5017747;28;20050;-72
2022/01/29 09:22:22;;;;;;;13.00;4.90;;;9.90;99.90;;;;;;5019161;28;20088;-72
2022/01/29 09:24:48;;;;;;;9.10;4.72;;;9.90;99.90;;;;;;5018837;28;20090;-72
2022/01/29 09:27:13;;;;;;;5.25;4.22;;;9.90;99.90;;;;;;5051348;28;20049;-72
2022/01/29 09:29:39;;;;;;;6.82;3.92;;;10.00;99.90;;;;;;5038494;28;20056;-72
2022/01/29 09:32:05;;;;;;;8.27;3.90;;;10.00;99.90;;;;;;5033730;28;20044;-73
2022/01/29 09:34:31;;;;;;;6.35;3.80;;;10.10;99.90;;;;;;5030877;28;20041;-72
2022/01/29 09:36:56;;;;;;;6.80;4.03;;;10.10;99.90;;;;;;5059783;28;20831;-72
2022/01/29 09:39:22;;;;;;;5.78;4.13;;;10.20;99.90;;;;;;5065365;28;20091;-72
2022/01/29 09:41:48;;;;;;;4.25;3.40;;;10.20;99.90;;;;;;5029356;28;20053;-71
2022/01/29 09:44:14;;;;;;;5.47;3.30;;;10.30;99.90;;;;;;5066861;28;20103;-71
2022/01/29 09:46:41;;;;;;;6.70;3.95;;;10.30;99.90;;;;;;5062833;28;20741;-72
2022/01/29 09:49:07;;;;;;;8.38;4.85;;;10.30;99.90;;;;;;5028854;28;20041;-72
2022/01/29 09:51:36;;;;;;;5.88;3.72;;;10.30;99.90;;;;;;5031674;28;20041;-72
2022/01/29 09:54:02;;;;;;;6.60;3.67;;;10.30;99.90;;;;;;5033393;28;20037;-72
2022/01/29 09:56:28;;;;;;;7.28;3.92;;;10.30;99.90;;;;;;5063703;28;20126;-71
2022/01/29 09:58:54;;;;;;;6.85;3.42;;;10.30;99.90;;;;;;5036300;28;20048;-72
2022/01/29 10:01:19;;;;;;;6.88;3.22;;;10.30;99.90;;;;;;5037389;28;20053;-72
2022/01/29 10:04:03;;;;;;;5.85;3.40;;;10.40;99.90;;;;;;5036292;28;20060;-72
2022/01/29 10:06:28;;;;;;;;;;;10.40;99.90;;;;;;5041182;28;20044;-72
2022/01/29 10:08:54;;;;;;;7.78;3.42;;;10.30;99.90;;;;;;5040065;28;19979;-72
2022/01/29 10:11:23;;;;;;;4.30;3.70;;;10.30;99.90;;;;;;5034986;28;20077;-72
2022/01/29 10:13:49;;;;;;;6.05;3.20;;;10.30;99.90;;;;;;5037165;28;20045;-72
2022/01/29 10:16:21;;;;;;;17.48;5.10;;;10.30;99.90;;;;;;5038709;28;20853;-72
2022/01/29 10:19:07;;;;;;;8.18;5.18;;;10.30;99.90;;;;;;5038940;28;20405;-72
2022/01/29 10:21:35;;;;;;;6.43;3.50;;;10.40;99.90;;;;;;5037978;28;20127;-72
2022/01/29 10:24:14;;;;;;;3.95;3.00;;;10.40;99.90;;;;;;5034173;28;20465;-72
2022/01/29 10:26:41;;;;;;;5.65;2.88;;;10.40;99.90;;;;;;5036222;28;20075;-72
2022/01/29 10:29:09;;;;;;;6.85;3.13;;;10.40;99.90;;;;;;5068173;28;20843;-72
2022/01/29 10:31:40;;;;;;;11.27;3.30;;;10.40;99.90;;;;;;5066373;28;20559;-72
2022/01/29 10:34:16;;;;;;;7.10;3.78;;;10.40;99.90;;;;;;5068796;28;20385;-72
2022/01/29 10:36:41;;;;;;;3.80;2.97;;;10.40;99.90;;;;;;5039954;28;20424;-75
2022/01/29 10:39:07;;;;;;;9.05;3.22;;;10.40;99.90;;;;;;5041602;28;20061;-71
2022/01/29 10:41:32;;;;;;;7.90;2.97;;;10.40;99.90;;;;;;5041222;28;20060;-70
2022/01/29 10:44:08;;;;;;;13.13;4.47;;;10.50;99.90;;;;;;5039806;28;20583;-71
2022/01/29 10:46:34;;;;;;;7.20;3.22;;;10.50;99.90;;;;;;5033626;28;20057;-71
2022/01/29 10:49:00;;;;;;;8.13;3.15;;;10.50;99.90;;;;;;5034636;28;20060;-71
2022/01/29 10:51:26;;;;;;;4.63;2.78;;;10.50;99.90;;;;;;5035938;28;20102;-70
2022/01/29 10:53:55;;;;;;;4.75;2.55;;;10.50;99.90;;;;;;5036936;28;20052;-72
2022/01/29 10:56:21;;;;;;;5.15;2.70;;;10.50;99.90;;;;;;5018842;28;20045;-71
2022/01/29 10:58:50;;;;;;;4.45;3.15;;;10.50;99.90;;;;;;5032381;28;20045;-70
2022/01/29 11:01:23;;;;;;;5.05;3.00;;;10.60;99.90;;;;;;5035927;28;20079;-71
2022/01/29 11:03:52;;;;;;;4.80;2.47;;;10.60;99.90;;;;;;5037250;28;20102;-70
2022/01/29 11:06:21;;;;;;;6.18;1.80;;;10.60;99.90;;;;;;5038370;28;20052;-71
2022/01/29 11:08:48;;;;;;;3.67;3.03;;;10.70;99.90;;;;;;5069134;28;20420;-70
2022/01/29 11:11:15;;;;;;;3.55;2.13;;;10.60;99.90;;;;;;5071674;28;20056;-71
2022/01/29 11:13:44;;;;;;;5.32;3.10;;;10.60;99.90;;;;;;5071381;28;20531;-70
2022/01/29 11:16:11;;;;;;;5.05;2.22;;;10.70;99.90;;;;;;5072894;28;20059;-70
2022/01/29 11:18:37;;;;;;;5.13;2.08;;;10.70;99.90;;;;;;5072567;28;20061;-70
2022/01/29 11:21:03;;;;;;;5.15;3.05;;;10.70;99.90;;;;;;5040570;28;20120;-70
2022/01/29 11:23:30;;;;;;;6.20;2.53;;;10.70;99.90;;;;;;5071002;28;20487;-70
2022/01/29 11:25:58;;;;;;;5.07;2.72;;;10.70;99.90;;;;;;5035593;28;20040;-70
2022/01/29 11:28:26;;;;;;;6.25;2.30;;;10.70;99.90;;;;;;5072292;28;20045;-71
2022/01/29 11:31:11;;;;;;;6.90;2.85;;;10.70;99.90;;;;;;5040968;28;20427;-70
2022/01/29 11:33:59;;;;;;;4.63;2.28;;;10.70;99.90;;;;;;5036405;28;20122;-69
2022/01/29 11:36:46;;;;;;;5.93;2.30;;;10.80;99.90;;;;;;5039615;28;20132;-71
2022/01/29 11:39:26;;;;;;;6.47;3.45;;;10.80;99.90;;;;;;5058351;28;20344;-70
2022/01/29 11:42:10;;;;;;;6.45;2.33;;;10.80;99.90;;;;;;5040102;28;20053;-70
2022/01/29 11:44:36;;;;;;;5.53;2.70;;;10.80;99.90;;;;;;5038720;28;20053;-71
2022/01/29 11:47:27;;;;;;;7.43;2.53;;;10.80;99.90;;;;;;5038588;28;20052;-71
2022/01/29 11:50:14;;;;;;;4.03;2.63;;;10.80;99.90;;;;;;5039329;28;20063;-70
2022/01/29 11:52:55;;;;;;;5.57;2.70;;;10.80;99.90;;;;;;5028141;28;20504;-70
2022/01/29 11:55:34;;;;;;;7.43;2.25;;;10.80;99.90;;;;;;5038983;28;20191;-70
2022/01/29 11:58:26;;;;;;;5.28;1.92;;;10.80;99.90;;;;;;5038919;28;20053;-70
2022/01/29 12:01:00;;;;;;;5.18;2.15;;;10.90;99.90;;;;;;5039506;28;20416;-70
2022/01/29 12:03:39;;;;;;;6.13;2.72;;;10.90;99.90;;;;;;5039887;28;20127;-70
2022/01/29 12:09:07;;;;;;;5.60;2.78;;;11.00;99.90;;;;;;5040176;28;20049;-69
2022/01/29 12:11:39;;;;;;;4.20;2.17;;;11.00;99.90;;;;;;5039375;28;20076;-70
2022/01/29 12:14:13;;;;;;;5.07;2.20;;;11.00;99.90;;;;;;5038425;28;20048;-70
2022/01/29 12:16:48;;;;;;;2.30;1.63;;;11.10;99.90;;;;;;5037824;28;20063;-70
2022/01/29 12:19:37;;;;;;;6.18;1.90;;;11.10;99.90;;;;;;5039395;28;20056;-68
2022/01/29 12:22:12;;;;;;;3.97;2.28;;;11.10;99.90;;;;;;5038672;28;20145;-69
2022/01/29 12:24:39;;;;;;;4.15;2.10;;;11.10;99.90;;;;;;5039580;28;20057;-69
2022/01/29 12:27:05;;;;;;;3.53;1.90;;;11.10;99.90;;;;;;5038518;28;20053;-68
2022/01/29 12:29:31;;;;;;;4.32;1.65;;;11.20;99.90;;;;;;5037338;28;20796;-68
2022/01/29 12:31:57;;;;;;;3.33;1.92;;;11.20;99.90;;;;;;5039628;28;20127;-69
2022/01/29 12:34:24;;;;;;;3.70;2.00;;;11.30;99.90;;;;;;5037729;28;20551;-68
2022/01/29 12:36:51;;;;;;;4.03;2.72;;;11.30;99.90;;;;;;5038402;28;20064;-68
2022/01/29 12:39:22;;;;;;;8.93;2.63;;;11.30;99.90;;;;;;5035151;28;20049;-73
2022/01/29 12:42:03;;;;;;;7.95;2.38;;;11.30;99.90;;;;;;5032598;28;20130;-75
2022/01/29 12:44:29;;;;;;;6.07;2.10;;;11.40;99.90;;;;;;5031390;28;20049;-69
2022/01/29 12:46:55;;;;;;;6.32;3.05;;;11.40;99.90;;;;;;5034398;28;20106;-68
2022/01/29 12:49:21;;;;;;;7.90;2.50;;;11.40;99.90;;;;;;5066615;28;20049;-68
2022/01/29 12:51:55;;;;;;;8.40;2.30;;;11.40;99.90;;;;;;5066951;28;20477;-69
2022/01/29 12:54:23;;;;;;;4.35;2.05;;;11.50;99.90;;;;;;5033961;28;20041;-69
2022/01/29 12:56:48;;;;;;;4.70;2.10;;;11.50;99.90;;;;;;5067150;28;20408;-70
2022/01/29 12:59:15;;;;;;;5.90;2.20;;;11.50;99.90;;;;;;5035940;28;20056;-69
2022/01/29 13:01:43;;;;;;;3.22;1.95;;;11.60;99.90;;;;;;5069834;28;20473;-69